sensor_id;sensor_type;location;lat;lon;timestamp;pressure;altitude;pressure_sealevel;temperature;humidity
20023;BME280;10172;42.054;24.546;2023-05-16T00:00:08;98010.47;;;15.41;100.00
20023;BME280;10172;42.054;24.546;2023-05-16T00:02:35;97997.88;;;14.23;100.00
20023;BME280;10172;42.054;24.546;2023-05-16T00:05:02;98004.38;;;14.61;100.00
20023;BME280;10172;42.054;24.546;2023-05-16T00:07:29;97991.94;;;14.41;100.00
20023;BME280;10172;42.054;24.546;2023-05-16T00:09:55;97996.34;;;14.30;100.00
20023;BME280;10172;42.054;24.546;2023-05-16T00:12:21;97989.88;;;14.03;100.00
20023;BME280;10172;42.054;24.546;2023-05-16T00:14:47;97990.25;;;13.98;100.00
20023;BME280;10172;42.054;24.546;2023-05-16T00:17:13;97993.47;;;13.92;100.00
20023;BME280;10172;42.054;24.546;2023-05-16T00:19:38;97986.81;;;13.13;100.00
20023;BME280;10172;42.054;24.546;2023-05-16T00:22:04;97981.81;;;13.20;100.00
20023;BME280;10172;42.054;24.546;2023-05-16T00:24:30;97983.09;;;13.57;100.00
20023;BME280;10172;42.054;24.546;2023-05-16T00:26:56;97991.66;;;13.72;100.00
20023;BME280;10172;42.054;24.546;2023-05-16T00:29:21;97990.59;;;13.84;100.00
20023;BME280;10172;42.054;24.546;2023-05-16T00:31:49;97991.53;;;13.94;100.00
20023;BME280;10172;42.054;24.546;2023-05-16T00:34:15;97989.88;;;13.82;100.00
20023;BME280;10172;42.054;24.546;2023-05-16T00:36:40;97989.34;;;13.88;100.00
20023;BME280;10172;42.054;24.546;2023-05-16T00:39:06;97978.81;;;14.17;100.00
20023;BME280;10172;42.054;24.546;2023-05-16T00:41:33;97976.41;;;13.84;100.00
20023;BME280;10172;42.054;24.546;2023-05-16T00:43:58;97975.88;;;14.20;100.00
20023;BME280;10172;42.054;24.546;2023-05-16T00:46:24;97970.22;;;14.44;100.00
20023;BME280;10172;42.054;24.546;2023-05-16T00:48:49;97959.81;;;14.20;100.00
20023;BME280;10172;42.054;24.546;2023-05-16T00:51:16;97961.00;;;14.27;100.00
20023;BME280;10172;42.054;24.546;2023-05-16T00:53:42;97972.34;;;14.19;100.00
20023;BME280;10172;42.054;24.546;2023-05-16T00:56:08;97966.09;;;13.38;100.00
20023;BME280;10172;42.054;24.546;2023-05-16T00:58:35;97964.88;;;13.62;100.00
20023;BME280;10172;42.054;24.546;2023-05-16T01:01:01;97964.00;;;13.62;100.00
20023;BME280;10172;42.054;24.546;2023-05-16T01:03:28;97961.47;;;13.81;100.00
20023;BME280;10172;42.054;24.546;2023-05-16T01:05:54;97966.66;;;13.83;100.00
20023;BME280;10172;42.054;24.546;2023-05-16T01:08:20;97952.25;;;13.74;100.00
20023;BME280;10172;42.054;24.546;2023-05-16T01:11:07;97956.44;;;14.18;100.00
20023;BME280;10172;42.054;24.546;2023-05-16T01:13:57;97951.81;;;14.50;100.00
20023;BME280;10172;42.054;24.546;2023-05-16T01:17:08;97949.03;;;14.61;100.00
20023;BME280;10172;42.054;24.546;2023-05-16T01:22:28;97957.31;;;13.04;100.00
20023;BME280;10172;42.054;24.546;2023-05-16T01:27:58;97947.44;;;13.68;100.00
20023;BME280;10172;42.054;24.546;2023-05-16T01:30:24;97949.25;;;13.88;100.00
20023;BME280;10172;42.054;24.546;2023-05-16T01:32:50;97954.63;;;14.49;100.00
20023;BME280;10172;42.054;24.546;2023-05-16T01:35:16;97944.53;;;14.01;100.00
20023;BME280;10172;42.054;24.546;2023-05-16T01:37:52;97941.91;;;14.41;100.00
20023;BME280;10172;42.054;24.546;2023-05-16T01:40:47;97942.34;;;13.24;100.00
20023;BME280;10172;42.054;24.546;2023-05-16T01:43:27;97928.38;;;13.82;100.00
20023;BME280;10172;42.054;24.546;2023-05-16T01:45:59;97930.28;;;14.21;100.00
20023;BME280;10172;42.054;24.546;2023-05-16T01:48:34;97934.78;;;13.91;100.00
20023;BME280;10172;42.054;24.546;2023-05-16T01:51:03;97922.63;;;14.38;100.00
20023;BME280;10172;42.054;24.546;2023-05-16T01:53:35;97917.78;;;14.01;100.00
20023;BME280;10172;42.054;24.546;2023-05-16T01:56:02;97915.38;;;14.28;100.00
20023;BME280;10172;42.054;24.546;2023-05-16T01:58:32;97907.09;;;14.81;100.00
20023;BME280;10172;42.054;24.546;2023-05-16T02:01:03;97912.13;;;13.23;100.00
20023;BME280;10172;42.054;24.546;2023-05-16T02:03:30;97910.41;;;13.22;100.00
20023;BME280;10172;42.054;24.546;2023-05-16T02:05:56;97911.59;;;13.50;100.00
20023;BME280;10172;42.054;24.546;2023-05-16T02:08:23;97918.84;;;13.59;100.00
20023;BME280;10172;42.054;24.546;2023-05-16T02:10:49;97916.50;;;13.45;100.00
20023;BME280;10172;42.054;24.546;2023-05-16T02:13:14;97906.25;;;13.70;100.00
20023;BME280;10172;42.054;24.546;2023-05-16T02:15:40;97908.25;;;13.78;100.00
20023;BME280;10172;42.054;24.546;2023-05-16T02:18:05;97907.16;;;13.60;100.00
20023;BME280;10172;42.054;24.546;2023-05-16T02:20:31;97911.47;;;13.31;100.00
20023;BME280;10172;42.054;24.546;2023-05-16T02:22:57;97906.53;;;13.67;100.00
20023;BME280;10172;42.054;24.546;2023-05-16T02:25:23;97897.75;;;14.66;100.00
20023;BME280;10172;42.054;24.546;2023-05-16T02:27:48;97895.94;;;15.14;100.00
20023;BME280;10172;42.054;24.546;2023-05-16T02:30:14;97901.06;;;15.46;100.00
20023;BME280;10172;42.054;24.546;2023-05-16T02:32:40;97890.88;;;15.11;100.00
20023;BME280;10172;42.054;24.546;2023-05-16T02:35:09;97882.72;;;13.44;100.00
20023;BME280;10172;42.054;24.546;2023-05-16T02:37:35;97880.09;;;13.74;100.00
20023;BME280;10172;42.054;24.546;2023-05-16T02:40:01;97897.91;;;13.64;100.00
20023;BME280;10172;42.054;24.546;2023-05-16T02:42:26;97892.75;;;14.32;100.00
20023;BME280;10172;42.054;24.546;2023-05-16T02:44:52;97896.84;;;13.76;100.00
20023;BME280;10172;42.054;24.546;2023-05-16T02:47:17;97894.06;;;13.87;100.00
20023;BME280;10172;42.054;24.546;2023-05-16T02:49:43;97911.91;;;14.07;100.00
20023;BME280;10172;42.054;24.546;2023-05-16T02:52:09;97899.16;;;14.20;100.00
20023;BME280;10172;42.054;24.546;2023-05-16T02:54:34;97897.31;;;13.60;100.00
20023;BME280;10172;42.054;24.546;2023-05-16T02:57:00;97900.88;;;13.91;100.00
20023;BME280;10172;42.054;24.546;2023-05-16T02:59:25;97906.31;;;14.20;100.00
20023;BME280;10172;42.054;24.546;2023-05-16T03:01:51;97901.38;;;13.13;100.00
20023;BME280;10172;42.054;24.546;2023-05-16T03:04:16;97895.34;;;13.83;100.00
20023;BME280;10172;42.054;24.546;2023-05-16T03:06:42;97900.50;;;14.05;100.00
20023;BME280;10172;42.054;24.546;2023-05-16T03:09:08;97912.00;;;14.26;100.00
20023;BME280;10172;42.054;24.546;2023-05-16T03:11:33;97914.88;;;14.34;100.00
20023;BME280;10172;42.054;24.546;2023-05-16T03:13:59;97913.75;;;14.37;100.00
20023;BME280;10172;42.054;24.546;2023-05-16T03:16:24;97911.59;;;13.50;100.00
20023;BME280;10172;42.054;24.546;2023-05-16T03:18:50;97914.53;;;13.47;100.00
20023;BME280;10172;42.054;24.546;2023-05-16T03:21:15;97925.75;;;13.61;100.00
20023;BME280;10172;42.054;24.546;2023-05-16T03:23:41;97920.06;;;13.55;100.00
20023;BME280;10172;42.054;24.546;2023-05-16T03:26:07;97922.81;;;13.44;100.00
20023;BME280;10172;42.054;24.546;2023-05-16T03:28:33;97924.91;;;13.61;100.00
20023;BME280;10172;42.054;24.546;2023-05-16T03:30:58;97923.13;;;13.71;100.00
20023;BME280;10172;42.054;24.546;2023-05-16T03:33:24;97925.66;;;13.52;100.00
20023;BME280;10172;42.054;24.546;2023-05-16T03:35:50;97923.19;;;13.60;100.00
20023;BME280;10172;42.054;24.546;2023-05-16T03:38:16;97928.72;;;13.89;100.00
20023;BME280;10172;42.054;24.546;2023-05-16T03:40:42;97923.56;;;13.76;100.00
20023;BME280;10172;42.054;24.546;2023-05-16T03:43:08;97924.31;;;14.08;100.00
20023;BME280;10172;42.054;24.546;2023-05-16T03:45:33;97921.94;;;14.15;100.00
20023;BME280;10172;42.054;24.546;2023-05-16T03:47:59;97907.53;;;14.36;100.00
20023;BME280;10172;42.054;24.546;2023-05-16T03:50:24;97908.13;;;14.10;100.00
20023;BME280;10172;42.054;24.546;2023-05-16T03:52:50;97918.91;;;13.48;100.00
20023;BME280;10172;42.054;24.546;2023-05-16T03:55:18;97911.66;;;14.20;100.00
20023;BME280;10172;42.054;24.546;2023-05-16T03:57:44;97916.53;;;14.35;100.00
20023;BME280;10172;42.054;24.546;2023-05-16T04:00:10;97910.25;;;14.46;100.00
20023;BME280;10172;42.054;24.546;2023-05-16T04:02:37;97908.84;;;14.42;100.00
20023;BME280;10172;42.054;24.546;2023-05-16T04:05:06;97897.75;;;14.16;100.00
20023;BME280;10172;42.054;24.546;2023-05-16T04:07:32;97900.84;;;14.71;100.00
20023;BME280;10172;42.054;24.546;2023-05-16T04:09:57;97893.19;;;14.38;100.00
20023;BME280;10172;42.054;24.546;2023-05-16T04:12:23;97897.22;;;15.20;100.00
20023;BME280;10172;42.054;24.546;2023-05-16T04:14:48;97895.94;;;15.62;100.00
20023;BME280;10172;42.054;24.546;2023-05-16T04:17:13;97908.78;;;15.39;100.00
20023;BME280;10172;42.054;24.546;2023-05-16T04:19:39;97901.56;;;15.69;100.00
20023;BME280;10172;42.054;24.546;2023-05-16T04:22:05;97900.97;;;16.21;100.00
20023;BME280;10172;42.054;24.546;2023-05-16T04:24:32;97905.66;;;16.46;100.00
20023;BME280;10172;42.054;24.546;2023-05-16T04:26:57;97908.75;;;16.79;100.00
20023;BME280;10172;42.054;24.546;2023-05-16T04:29:23;97916.41;;;16.46;100.00
20023;BME280;10172;42.054;24.546;2023-05-16T04:31:49;97913.50;;;16.85;100.00
20023;BME280;10172;42.054;24.546;2023-05-16T04:34:15;97913.28;;;16.96;100.00
20023;BME280;10172;42.054;24.546;2023-05-16T04:36:41;97909.47;;;17.16;100.00
20023;BME280;10172;42.054;24.546;2023-05-16T04:39:07;97907.31;;;17.02;100.00
20023;BME280;10172;42.054;24.546;2023-05-16T04:41:32;97914.28;;;17.12;100.00
20023;BME280;10172;42.054;24.546;2023-05-16T04:44:02;97909.81;;;16.86;100.00
20023;BME280;10172;42.054;24.546;2023-05-16T04:46:29;97916.66;;;16.98;100.00
20023;BME280;10172;42.054;24.546;2023-05-16T04:48:54;97915.59;;;17.26;100.00
20023;BME280;10172;42.054;24.546;2023-05-16T04:51:20;97912.66;;;17.37;100.00
20023;BME280;10172;42.054;24.546;2023-05-16T04:53:46;97910.91;;;17.10;100.00
20023;BME280;10172;42.054;24.546;2023-05-16T04:56:12;97906.22;;;15.67;100.00
20023;BME280;10172;42.054;24.546;2023-05-16T04:58:37;97911.91;;;16.37;100.00
20023;BME280;10172;42.054;24.546;2023-05-16T05:01:03;97911.81;;;16.84;100.00
20023;BME280;10172;42.054;24.546;2023-05-16T05:03:28;97915.75;;;17.07;100.00
20023;BME280;10172;42.054;24.546;2023-05-16T05:05:54;97917.19;;;17.37;100.00
20023;BME280;10172;42.054;24.546;2023-05-16T05:08:20;97916.59;;;17.43;100.00
20023;BME280;10172;42.054;24.546;2023-05-16T05:10:46;97919.75;;;17.56;100.00
20023;BME280;10172;42.054;24.546;2023-05-16T05:13:11;97922.50;;;17.46;100.00
20023;BME280;10172;42.054;24.546;2023-05-16T05:15:37;97920.72;;;17.55;100.00
20023;BME280;10172;42.054;24.546;2023-05-16T05:18:03;97932.47;;;17.71;100.00
20023;BME280;10172;42.054;24.546;2023-05-16T05:20:28;97937.41;;;17.23;100.00
20023;BME280;10172;42.054;24.546;2023-05-16T05:22:54;97926.59;;;16.43;100.00
20023;BME280;10172;42.054;24.546;2023-05-16T05:25:19;97928.41;;;14.43;100.00
20023;BME280;10172;42.054;24.546;2023-05-16T05:27:45;97920.66;;;15.08;100.00
20023;BME280;10172;42.054;24.546;2023-05-16T05:30:10;97918.25;;;15.43;100.00
20023;BME280;10172;42.054;24.546;2023-05-16T05:32:36;97928.59;;;16.31;100.00
20023;BME280;10172;42.054;24.546;2023-05-16T05:35:02;97921.84;;;16.82;100.00
20023;BME280;10172;42.054;24.546;2023-05-16T05:37:28;97925.59;;;17.16;100.00
20023;BME280;10172;42.054;24.546;2023-05-16T05:39:54;97913.97;;;17.33;100.00
20023;BME280;10172;42.054;24.546;2023-05-16T05:42:20;97913.53;;;17.38;100.00
20023;BME280;10172;42.054;24.546;2023-05-16T05:44:45;97915.34;;;17.55;100.00
20023;BME280;10172;42.054;24.546;2023-05-16T05:47:11;97914.88;;;17.42;100.00
20023;BME280;10172;42.054;24.546;2023-05-16T05:49:37;97903.91;;;17.35;100.00
20023;BME280;10172;42.054;24.546;2023-05-16T05:52:02;97911.69;;;17.56;100.00
20023;BME280;10172;42.054;24.546;2023-05-16T05:54:28;97913.63;;;17.71;100.00
20023;BME280;10172;42.054;24.546;2023-05-16T05:56:56;97909.97;;;17.72;100.00
20023;BME280;10172;42.054;24.546;2023-05-16T05:59:21;97915.41;;;17.63;100.00
20023;BME280;10172;42.054;24.546;2023-05-16T06:01:47;97906.97;;;17.40;100.00
20023;BME280;10172;42.054;24.546;2023-05-16T06:04:19;97901.31;;;17.43;100.00
20023;BME280;10172;42.054;24.546;2023-05-16T06:06:45;97916.91;;;17.22;100.00
20023;BME280;10172;42.054;24.546;2023-05-16T06:09:10;97913.38;;;17.21;100.00
20023;BME280;10172;42.054;24.546;2023-05-16T06:11:38;97907.19;;;17.47;100.00
20023;BME280;10172;42.054;24.546;2023-05-16T06:14:04;97911.91;;;17.62;100.00
20023;BME280;10172;42.054;24.546;2023-05-16T06:16:29;97923.59;;;17.79;100.00
20023;BME280;10172;42.054;24.546;2023-05-16T06:18:55;97919.56;;;17.57;100.00
20023;BME280;10172;42.054;24.546;2023-05-16T06:21:20;97908.19;;;17.63;100.00
20023;BME280;10172;42.054;24.546;2023-05-16T06:23:46;97899.38;;;17.35;100.00
20023;BME280;10172;42.054;24.546;2023-05-16T06:26:12;97911.38;;;17.59;100.00
20023;BME280;10172;42.054;24.546;2023-05-16T06:28:37;97912.66;;;17.72;100.00
20023;BME280;10172;42.054;24.546;2023-05-16T06:31:03;97912.66;;;17.72;100.00
20023;BME280;10172;42.054;24.546;2023-05-16T06:33:28;97904.47;;;17.56;100.00
20023;BME280;10172;42.054;24.546;2023-05-16T06:35:54;97912.22;;;17.59;100.00
20023;BME280;10172;42.054;24.546;2023-05-16T06:38:19;97892.06;;;17.63;100.00
20023;BME280;10172;42.054;24.546;2023-05-16T06:40:45;97892.22;;;17.87;100.00
20023;BME280;10172;42.054;24.546;2023-05-16T06:43:10;97889.84;;;17.84;100.00
20023;BME280;10172;42.054;24.546;2023-05-16T06:45:36;97904.50;;;17.90;100.00
20023;BME280;10172;42.054;24.546;2023-05-16T06:48:03;97908.41;;;17.96;100.00
20023;BME280;10172;42.054;24.546;2023-05-16T06:50:28;97900.66;;;17.49;100.00
20023;BME280;10172;42.054;24.546;2023-05-16T06:52:54;97892.06;;;17.46;100.00
20023;BME280;10172;42.054;24.546;2023-05-16T06:55:19;97873.91;;;17.65;100.00
20023;BME280;10172;42.054;24.546;2023-05-16T06:57:45;97890.09;;;17.73;100.00
20023;BME280;10172;42.054;24.546;2023-05-16T07:00:12;97885.53;;;17.91;100.00
20023;BME280;10172;42.054;24.546;2023-05-16T07:02:37;97887.59;;;17.98;100.00
20023;BME280;10172;42.054;24.546;2023-05-16T07:05:03;97874.53;;;18.11;100.00
20023;BME280;10172;42.054;24.546;2023-05-16T07:07:29;97875.47;;;18.27;100.00
20023;BME280;10172;42.054;24.546;2023-05-16T07:09:54;97875.66;;;18.34;100.00
20023;BME280;10172;42.054;24.546;2023-05-16T07:12:20;97865.06;;;17.12;100.00
20023;BME280;10172;42.054;24.546;2023-05-16T07:14:45;97866.66;;;17.83;100.00
20023;BME280;10172;42.054;24.546;2023-05-16T07:17:11;97862.44;;;17.81;100.00
20023;BME280;10172;42.054;24.546;2023-05-16T07:19:37;97874.25;;;17.62;100.00
20023;BME280;10172;42.054;24.546;2023-05-16T07:22:02;97859.56;;;17.82;100.00
20023;BME280;10172;42.054;24.546;2023-05-16T07:24:29;97856.38;;;18.13;100.00
20023;BME280;10172;42.054;24.546;2023-05-16T07:26:54;97862.66;;;17.62;100.00
20023;BME280;10172;42.054;24.546;2023-05-16T07:29:20;97873.00;;;17.13;100.00
20023;BME280;10172;42.054;24.546;2023-05-16T07:31:45;97869.50;;;15.77;100.00
20023;BME280;10172;42.054;24.546;2023-05-16T07:34:11;97857.47;;;16.54;100.00
20023;BME280;10172;42.054;24.546;2023-05-16T07:36:37;97865.19;;;17.28;100.00
20023;BME280;10172;42.054;24.546;2023-05-16T07:39:02;97860.69;;;17.28;100.00
20023;BME280;10172;42.054;24.546;2023-05-16T07:41:29;97860.91;;;17.35;100.00
20023;BME280;10172;42.054;24.546;2023-05-16T07:43:54;97853.41;;;17.47;100.00
20023;BME280;10172;42.054;24.546;2023-05-16T07:46:20;97864.72;;;18.02;100.00
20023;BME280;10172;42.054;24.546;2023-05-16T07:48:46;97867.88;;;18.31;100.00
20023;BME280;10172;42.054;24.546;2023-05-16T07:51:11;97849.69;;;18.25;100.00
20023;BME280;10172;42.054;24.546;2023-05-16T07:53:36;97836.66;;;18.46;100.00
20023;BME280;10172;42.054;24.546;2023-05-16T07:56:02;97841.84;;;18.81;100.00
20023;BME280;10172;42.054;24.546;2023-05-16T07:58:28;97842.50;;;18.75;100.00
20023;BME280;10172;42.054;24.546;2023-05-16T08:00:54;97843.78;;;18.63;100.00
20023;BME280;10172;42.054;24.546;2023-05-16T08:03:19;97836.94;;;18.27;100.00
20023;BME280;10172;42.054;24.546;2023-05-16T08:05:45;97842.03;;;18.38;100.00
20023;BME280;10172;42.054;24.546;2023-05-16T08:08:10;97834.06;;;17.00;100.00
20023;BME280;10172;42.054;24.546;2023-05-16T08:10:35;97825.31;;;17.41;100.00
20023;BME280;10172;42.054;24.546;2023-05-16T08:13:01;97837.88;;;18.18;100.00
20023;BME280;10172;42.054;24.546;2023-05-16T08:15:27;97829.06;;;16.25;100.00
20023;BME280;10172;42.054;24.546;2023-05-16T08:17:56;97828.97;;;16.17;100.00
20023;BME280;10172;42.054;24.546;2023-05-16T08:20:22;97829.47;;;16.57;100.00
20023;BME280;10172;42.054;24.546;2023-05-16T08:22:48;97823.69;;;15.97;100.00
20023;BME280;10172;42.054;24.546;2023-05-16T08:25:13;97832.38;;;16.09;100.00
20023;BME280;10172;42.054;24.546;2023-05-16T08:27:38;97828.41;;;16.13;100.00
20023;BME280;10172;42.054;24.546;2023-05-16T08:30:05;97826.41;;;16.42;100.00
20023;BME280;10172;42.054;24.546;2023-05-16T08:32:31;97827.19;;;17.66;100.00
20023;BME280;10172;42.054;24.546;2023-05-16T08:34:56;97834.09;;;17.95;100.00
20023;BME280;10172;42.054;24.546;2023-05-16T08:37:22;97822.16;;;18.47;100.00
20023;BME280;10172;42.054;24.546;2023-05-16T08:39:47;97828.16;;;16.61;100.00
20023;BME280;10172;42.054;24.546;2023-05-16T08:42:13;97804.25;;;15.86;100.00
20023;BME280;10172;42.054;24.546;2023-05-16T08:44:38;97814.78;;;16.69;100.00
20023;BME280;10172;42.054;24.546;2023-05-16T08:47:24;97814.25;;;16.65;100.00
20023;BME280;10172;42.054;24.546;2023-05-16T08:49:51;97796.97;;;16.50;100.00
20023;BME280;10172;42.054;24.546;2023-05-16T08:52:20;97816.06;;;15.93;100.00
20023;BME280;10172;42.054;24.546;2023-05-16T08:54:46;97821.84;;;16.25;100.00
20023;BME280;10172;42.054;24.546;2023-05-16T08:57:15;97808.97;;;16.56;100.00
20023;BME280;10172;42.054;24.546;2023-05-16T08:59:41;97806.53;;;16.35;100.00
20023;BME280;10172;42.054;24.546;2023-05-16T09:02:07;97799.94;;;16.47;100.00
20023;BME280;10172;42.054;24.546;2023-05-16T09:04:33;97801.69;;;16.84;100.00
20023;BME280;10172;42.054;24.546;2023-05-16T09:07:00;97799.47;;;16.34;100.00
20023;BME280;10172;42.054;24.546;2023-05-16T09:09:25;97809.19;;;17.41;100.00
20023;BME280;10172;42.054;24.546;2023-05-16T09:11:51;97813.56;;;16.63;100.00
20023;BME280;10172;42.054;24.546;2023-05-16T09:14:17;97812.22;;;17.38;100.00
20023;BME280;10172;42.054;24.546;2023-05-16T09:16:44;97813.19;;;17.88;100.00
20023;BME280;10172;42.054;24.546;2023-05-16T09:19:11;97817.22;;;18.76;100.00
20023;BME280;10172;42.054;24.546;2023-05-16T09:21:38;97815.38;;;19.09;100.00
20023;BME280;10172;42.054;24.546;2023-05-16T09:24:05;97840.03;;;19.54;100.00
20023;BME280;10172;42.054;24.546;2023-05-16T09:26:36;97827.13;;;18.60;100.00
20023;BME280;10172;42.054;24.546;2023-05-16T09:29:12;97822.06;;;18.15;100.00
20023;BME280;10172;42.054;24.546;2023-05-16T09:31:38;97819.06;;;17.32;100.00
20023;BME280;10172;42.054;24.546;2023-05-16T09:34:07;97799.63;;;17.21;100.00
20023;BME280;10172;42.054;24.546;2023-05-16T09:36:33;97796.81;;;17.48;100.00
20023;BME280;10172;42.054;24.546;2023-05-16T09:38:59;97804.50;;;17.95;100.00
20023;BME280;10172;42.054;24.546;2023-05-16T09:41:25;97799.69;;;18.64;100.00
20023;BME280;10172;42.054;24.546;2023-05-16T09:43:51;97809.50;;;18.89;100.00
20023;BME280;10172;42.054;24.546;2023-05-16T09:46:16;97808.44;;;18.66;100.00
20023;BME280;10172;42.054;24.546;2023-05-16T09:48:44;97813.22;;;19.13;100.00
20023;BME280;10172;42.054;24.546;2023-05-16T09:51:11;97821.00;;;19.40;100.00
20023;BME280;10172;42.054;24.546;2023-05-16T09:53:37;97831.09;;;19.62;100.00
20023;BME280;10172;42.054;24.546;2023-05-16T09:56:05;97826.38;;;19.40;100.00
20023;BME280;10172;42.054;24.546;2023-05-16T09:58:37;97809.38;;;18.41;100.00
20023;BME280;10172;42.054;24.546;2023-05-16T10:01:04;97803.44;;;17.54;100.00
20023;BME280;10172;42.054;24.546;2023-05-16T10:03:30;97788.16;;;17.11;100.00
20023;BME280;10172;42.054;24.546;2023-05-16T10:05:55;97787.25;;;18.13;100.00
20023;BME280;10172;42.054;24.546;2023-05-16T10:08:22;97777.72;;;18.35;100.00
20023;BME280;10172;42.054;24.546;2023-05-16T10:10:53;97782.16;;;18.02;100.00
20023;BME280;10172;42.054;24.546;2023-05-16T10:13:21;97778.41;;;18.37;100.00
20023;BME280;10172;42.054;24.546;2023-05-16T10:15:48;97765.69;;;18.63;100.00
20023;BME280;10172;42.054;24.546;2023-05-16T10:18:16;97786.06;;;18.82;100.00
20023;BME280;10172;42.054;24.546;2023-05-16T10:20:44;97773.88;;;17.96;100.00
20023;BME280;10172;42.054;24.546;2023-05-16T10:23:15;97778.97;;;18.57;100.00
20023;BME280;10172;42.054;24.546;2023-05-16T10:25:41;97765.22;;;17.24;100.00
20023;BME280;10172;42.054;24.546;2023-05-16T10:28:08;97773.75;;;17.71;100.00
20023;BME280;10172;42.054;24.546;2023-05-16T10:30:36;97756.50;;;18.32;100.00
20023;BME280;10172;42.054;24.546;2023-05-16T10:33:04;97752.22;;;18.79;100.00
20023;BME280;10172;42.054;24.546;2023-05-16T10:35:30;97756.75;;;19.27;100.00
20023;BME280;10172;42.054;24.546;2023-05-16T10:37:57;97743.75;;;19.47;100.00
20023;BME280;10172;42.054;24.546;2023-05-16T10:40:23;97763.00;;;19.11;100.00
20023;BME280;10172;42.054;24.546;2023-05-16T10:43:02;97752.22;;;19.11;100.00
20023;BME280;10172;42.054;24.546;2023-05-16T10:45:28;97754.47;;;18.34;100.00
20023;BME280;10172;42.054;24.546;2023-05-16T10:50:42;97746.06;;;18.29;100.00
20023;BME280;10172;42.054;24.546;2023-05-16T10:53:19;97749.75;;;18.28;100.00
20023;BME280;10172;42.054;24.546;2023-05-16T11:06:29;97715.06;;;18.17;100.00
20023;BME280;10172;42.054;24.546;2023-05-16T11:14:07;97723.06;;;17.92;100.00
20023;BME280;10172;42.054;24.546;2023-05-16T11:16:34;97722.47;;;18.23;100.00
20023;BME280;10172;42.054;24.546;2023-05-16T11:19:04;97722.78;;;18.04;100.00
20023;BME280;10172;42.054;24.546;2023-05-16T11:25:06;97727.00;;;17.39;100.00
20023;BME280;10172;42.054;24.546;2023-05-16T11:32:33;97740.38;;;18.40;100.00
20023;BME280;10172;42.054;24.546;2023-05-16T11:34:59;97726.75;;;17.83;100.00
20023;BME280;10172;42.054;24.546;2023-05-16T11:37:26;97734.72;;;18.67;100.00
20023;BME280;10172;42.054;24.546;2023-05-16T11:39:52;97733.94;;;18.33;100.00
20023;BME280;10172;42.054;24.546;2023-05-16T11:42:18;97723.91;;;19.24;100.00
20023;BME280;10172;42.054;24.546;2023-05-16T11:44:44;97724.78;;;18.02;100.00
20023;BME280;10172;42.054;24.546;2023-05-16T11:47:10;97707.00;;;17.07;100.00
20023;BME280;10172;42.054;24.546;2023-05-16T11:49:36;97715.13;;;17.49;100.00
20023;BME280;10172;42.054;24.546;2023-05-16T11:52:03;97718.97;;;18.30;100.00
20023;BME280;10172;42.054;24.546;2023-05-16T11:54:29;97723.72;;;19.17;100.00
20023;BME280;10172;42.054;24.546;2023-05-16T11:56:56;97723.88;;;18.35;100.00
20023;BME280;10172;42.054;24.546;2023-05-16T11:59:21;97714.56;;;17.63;100.00
20023;BME280;10172;42.054;24.546;2023-05-16T12:01:47;97726.91;;;18.40;100.00
20023;BME280;10172;42.054;24.546;2023-05-16T12:04:15;97728.38;;;18.26;100.00
20023;BME280;10172;42.054;24.546;2023-05-16T12:06:41;97730.81;;;17.96;100.00
20023;BME280;10172;42.054;24.546;2023-05-16T12:09:13;97735.50;;;18.43;100.00
20023;BME280;10172;42.054;24.546;2023-05-16T12:11:40;97742.44;;;17.96;100.00
20023;BME280;10172;42.054;24.546;2023-05-16T12:14:15;97748.31;;;17.91;100.00
20023;BME280;10172;42.054;24.546;2023-05-16T12:16:40;97725.84;;;18.25;100.00
20023;BME280;10172;42.054;24.546;2023-05-16T12:19:10;97725.94;;;18.49;100.00
20023;BME280;10172;42.054;24.546;2023-05-16T12:21:37;97721.84;;;17.45;100.00
20023;BME280;10172;42.054;24.546;2023-05-16T12:24:03;97715.09;;;17.15;100.00
20023;BME280;10172;42.054;24.546;2023-05-16T12:26:31;97706.97;;;17.59;100.00
20023;BME280;10172;42.054;24.546;2023-05-16T12:28:58;97703.97;;;18.28;100.00
20023;BME280;10172;42.054;24.546;2023-05-16T12:31:28;97710.91;;;19.35;100.00
20023;BME280;10172;42.054;24.546;2023-05-16T12:33:55;97682.44;;;19.80;100.00
20023;BME280;10172;42.054;24.546;2023-05-16T12:36:21;97693.63;;;20.38;100.00
20023;BME280;10172;42.054;24.546;2023-05-16T12:38:48;97685.28;;;20.48;100.00
20023;BME280;10172;42.054;24.546;2023-05-16T12:41:21;97675.34;;;20.63;100.00
20023;BME280;10172;42.054;24.546;2023-05-16T12:43:47;97670.03;;;20.92;100.00
20023;BME280;10172;42.054;24.546;2023-05-16T12:46:13;97671.78;;;20.85;100.00
20023;BME280;10172;42.054;24.546;2023-05-16T12:48:39;97673.78;;;20.68;100.00
20023;BME280;10172;42.054;24.546;2023-05-16T12:51:16;97670.06;;;20.47;100.00
20023;BME280;10172;42.054;24.546;2023-05-16T12:53:44;97663.16;;;19.52;100.00
20023;BME280;10172;42.054;24.546;2023-05-16T12:56:11;97670.25;;;19.53;100.00
20023;BME280;10172;42.054;24.546;2023-05-16T12:58:38;97667.41;;;19.46;100.00
20023;BME280;10172;42.054;24.546;2023-05-16T13:01:04;97666.72;;;19.44;100.00
20023;BME280;10172;42.054;24.546;2023-05-16T13:03:30;97660.59;;;18.39;100.00
20023;BME280;10172;42.054;24.546;2023-05-16T13:05:57;97649.41;;;17.85;100.00
20023;BME280;10172;42.054;24.546;2023-05-16T13:08:22;97660.16;;;17.77;100.00
20023;BME280;10172;42.054;24.546;2023-05-16T13:10:48;97650.78;;;17.89;100.00